VOZ1026 YBAS-YBBN
Flight info
| Callsign | VOZ1026 |
|---|---|
| Flight time | N/A |
| Altitude | 39000 |
| Route | AS T11 ROM Y166 IDLEG V327 IGUPI Y340 LAMUG Y177 SMOKA |
| Aircraft | B737/M-SDE2E3FGHIRWXY/LB1 |
Departure
| Time | 2026-04-14 22:48 |
|---|---|
| Airport | Alice Springs Airport (YBAS) |
Arrival
| Time | N/A |
|---|---|
| Airport | Brisbane International Airport (YBBN) |
| Time | Latitude | Longitude | Altitude | Speed | Heading |
|---|---|---|---|---|---|
| 2026-04-14 22:23 | -23.80366 | 133.90282 | 1792 ft | 0 kts | 71° |
| 2026-04-14 22:42 | -23.80366 | 133.90285 | 1792 ft | 1 kts | 83° |
| 2026-04-14 22:42 | -23.80374 | 133.90294 | 1790 ft | 2 kts | 150° |
| 2026-04-14 22:42 | -23.80390 | 133.90286 | 1790 ft | 3 kts | 225° |
| 2026-04-14 22:43 | -23.80400 | 133.90255 | 1792 ft | 6 kts | 267° |
| 2026-04-14 22:43 | -23.80373 | 133.90193 | 1791 ft | 11 kts | 300° |
| 2026-04-14 22:43 | -23.80334 | 133.90120 | 1792 ft | 11 kts | 300° |
| 2026-04-14 22:43 | -23.80350 | 133.90075 | 1790 ft | 7 kts | 217° |
| 2026-04-14 22:44 | -23.80388 | 133.90050 | 1791 ft | 6 kts | 211° |
| 2026-04-14 22:44 | -23.80430 | 133.90023 | 1790 ft | 8 kts | 211° |
| 2026-04-14 22:44 | -23.80446 | 133.89965 | 1790 ft | 9 kts | 285° |
| 2026-04-14 22:44 | -23.80408 | 133.89901 | 1790 ft | 11 kts | 305° |
| 2026-04-14 22:45 | -23.80363 | 133.89821 | 1789 ft | 14 kts | 299° |
| 2026-04-14 22:45 | -23.80314 | 133.89726 | 1789 ft | 15 kts | 300° |
| 2026-04-14 22:45 | -23.80260 | 133.89624 | 1790 ft | 16 kts | 300° |
| 2026-04-14 22:45 | -23.80203 | 133.89516 | 1790 ft | 17 kts | 300° |
| 2026-04-14 22:46 | -23.80158 | 133.89394 | 1790 ft | 17 kts | 275° |
| 2026-04-14 22:46 | -23.80137 | 133.89329 | 1791 ft | 9 kts | 342° |
| 2026-04-14 22:46 | -23.80111 | 133.89350 | 1791 ft | 3 kts | 85° |
| 2026-04-14 22:46 | -23.80120 | 133.89367 | 1791 ft | 3 kts | 121° |
| 2026-04-14 22:47 | -23.80142 | 133.89408 | 1790 ft | 16 kts | 121° |
| 2026-04-14 22:47 | -23.80318 | 133.89736 | 1789 ft | 86 kts | 120° |
| 2026-04-14 22:47 | -23.80731 | 133.90510 | 1788 ft | 147 kts | 119° |
| 2026-04-14 22:47 | -23.81294 | 133.91571 | 2190 ft | 166 kts | 116° |
| 2026-04-14 22:48 | -23.81674 | 133.92770 | 2973 ft | 168 kts | 104° |
| 2026-04-14 22:48 | -23.81936 | 133.93993 | 3748 ft | 173 kts | 104° |
| 2026-04-14 22:48 | -23.82243 | 133.95379 | 4009 ft | 202 kts | 104° |
| 2026-04-14 22:48 | -23.82597 | 133.96960 | 4294 ft | 223 kts | 104° |
| 2026-04-14 22:49 | -23.82976 | 133.98645 | 4843 ft | 232 kts | 104° |
| 2026-04-14 22:49 | -23.83370 | 134.00375 | 5511 ft | 236 kts | 103° |
| 2026-04-14 22:49 | -23.83781 | 134.02175 | 5930 ft | 255 kts | 103° |
| 2026-04-14 22:49 | -23.84223 | 134.04102 | 6632 ft | 264 kts | 102° |
| 2026-04-14 22:50 | -23.84676 | 134.06059 | 7514 ft | 267 kts | 102° |
| 2026-04-14 22:50 | -23.85136 | 134.08044 | 8364 ft | 272 kts | 103° |
| 2026-04-14 22:50 | -23.85600 | 134.10035 | 9189 ft | 276 kts | 103° |
| 2026-04-14 22:50 | -23.86078 | 134.12089 | 10016 ft | 281 kts | 103° |
| 2026-04-14 22:51 | -23.86574 | 134.14217 | 10464 ft | 300 kts | 103° |
| 2026-04-14 22:51 | -23.87111 | 134.16522 | 10684 ft | 324 kts | 103° |
| 2026-04-14 22:51 | -23.87676 | 134.18946 | 11240 ft | 333 kts | 103° |
| 2026-04-14 22:51 | -23.88256 | 134.21428 | 12005 ft | 337 kts | 103° |
| 2026-04-14 22:52 | -23.88834 | 134.23905 | 12681 ft | 343 kts | 103° |
| 2026-04-14 22:52 | -23.89432 | 134.26468 | 13300 ft | 352 kts | 103° |
| 2026-04-14 22:52 | -23.90043 | 134.29087 | 13951 ft | 358 kts | 104° |
| 2026-04-14 22:52 | -23.90664 | 134.31749 | 14563 ft | 364 kts | 104° |
| 2026-04-14 22:53 | -23.91293 | 134.34453 | 15168 ft | 370 kts | 104° |
| 2026-04-14 22:53 | -23.91935 | 134.37214 | 15725 ft | 378 kts | 103° |
| 2026-04-14 22:53 | -23.92577 | 134.39975 | 16491 ft | 379 kts | 103° |
| 2026-04-14 22:53 | -23.93230 | 134.42788 | 17154 ft | 383 kts | 103° |
| 2026-04-14 22:54 | -23.93892 | 134.45641 | 17771 ft | 389 kts | 103° |
| 2026-04-14 22:54 | -23.94560 | 134.48524 | 18390 ft | 394 kts | 103° |
| 2026-04-14 22:54 | -23.95237 | 134.51448 | 18953 ft | 398 kts | 103° |
| 2026-04-14 22:54 | -23.95921 | 134.54406 | 19505 ft | 402 kts | 103° |
| 2026-04-14 22:55 | -23.96603 | 134.57356 | 20046 ft | 407 kts | 103° |
| 2026-04-14 22:55 | -23.97300 | 134.60377 | 20583 ft | 412 kts | 103° |
| 2026-04-14 22:55 | -23.98004 | 134.63430 | 21125 ft | 416 kts | 103° |
| 2026-04-14 22:55 | -23.98717 | 134.66522 | 21653 ft | 421 kts | 103° |
| 2026-04-14 22:56 | -23.99435 | 134.69642 | 22163 ft | 425 kts | 103° |
| 2026-04-14 22:56 | -24.00162 | 134.72803 | 22686 ft | 430 kts | 103° |
| 2026-04-14 22:56 | -24.00893 | 134.75986 | 23197 ft | 434 kts | 104° |
| 2026-04-14 22:56 | -24.01632 | 134.79202 | 23699 ft | 438 kts | 104° |
| 2026-04-14 22:57 | -24.02377 | 134.82455 | 24104 ft | 443 kts | 103° |
| 2026-04-14 22:57 | -24.03128 | 134.85734 | 24519 ft | 446 kts | 103° |
| 2026-04-14 22:57 | -24.03885 | 134.89043 | 24933 ft | 450 kts | 103° |
| 2026-04-14 22:57 | -24.04648 | 134.92381 | 25337 ft | 453 kts | 103° |
| 2026-04-14 22:58 | -24.05416 | 134.95743 | 25732 ft | 457 kts | 103° |
| 2026-04-14 22:58 | -24.06189 | 134.99135 | 26126 ft | 461 kts | 103° |
| 2026-04-14 22:58 | -24.06967 | 135.02552 | 26490 ft | 465 kts | 103° |
| 2026-04-14 22:58 | -24.07743 | 135.05961 | 26832 ft | 469 kts | 103° |
| 2026-04-14 22:59 | -24.08534 | 135.09443 | 27199 ft | 472 kts | 102° |
| 2026-04-14 22:59 | -24.09329 | 135.12943 | 27564 ft | 475 kts | 102° |
| 2026-04-14 22:59 | -24.10130 | 135.16476 | 27917 ft | 479 kts | 102° |
| 2026-04-14 22:59 | -24.10931 | 135.20016 | 28254 ft | 481 kts | 102° |
| 2026-04-14 23:00 | -24.11464 | 135.22371 | 28463 ft | 484 kts | 102° |
| 2026-04-14 23:00 | -24.12278 | 135.25971 | 28770 ft | 487 kts | 102° |
| 2026-04-14 23:00 | -24.13095 | 135.29585 | 29089 ft | 490 kts | 102° |
| 2026-04-14 23:00 | -24.14180 | 135.34396 | 29490 ft | 494 kts | 102° |
| 2026-04-14 23:01 | -24.14728 | 135.36830 | 29689 ft | 496 kts | 102° |
| 2026-04-14 23:01 | -24.15558 | 135.40518 | 29973 ft | 499 kts | 102° |
| 2026-04-14 23:01 | -24.16391 | 135.44223 | 30226 ft | 502 kts | 102° |
| 2026-04-14 23:01 | -24.17226 | 135.47943 | 30461 ft | 504 kts | 102° |
| 2026-04-14 23:02 | -24.18064 | 135.51680 | 30722 ft | 506 kts | 102° |
| 2026-04-14 23:02 | -24.18906 | 135.55440 | 30972 ft | 508 kts | 102° |
| 2026-04-14 23:02 | -24.19749 | 135.59208 | 31206 ft | 510 kts | 102° |
| 2026-04-14 23:02 | -24.22566 | 135.71833 | 31954 ft | 516 kts | 102° |
| 2026-04-14 23:03 | -24.25977 | 135.87189 | 33038 ft | 518 kts | 102° |
| 2026-04-14 23:03 | -24.29356 | 136.02477 | 34317 ft | 515 kts | 102° |
| 2026-04-14 23:03 | -24.32678 | 136.17595 | 35311 ft | 516 kts | 102° |
| 2026-04-14 23:03 | -24.36014 | 136.32847 | 36357 ft | 514 kts | 101° |
| 2026-04-14 23:04 | -24.39351 | 136.48187 | 37169 ft | 516 kts | 101° |
| 2026-04-14 23:04 | -24.42665 | 136.63496 | 38038 ft | 515 kts | 101° |
| 2026-04-14 23:04 | -24.45968 | 136.78827 | 38712 ft | 516 kts | 101° |
| 2026-04-14 23:04 | -24.49322 | 136.94201 | 39188 ft | 518 kts | 101° |
| 2026-04-14 23:05 | -24.52658 | 137.09558 | 39196 ft | 528 kts | 101° |
| 2026-04-14 23:05 | -24.59418 | 137.40976 | 39067 ft | 523 kts | 101° |
| 2026-04-14 23:06 | -24.65949 | 137.71671 | 39049 ft | 507 kts | 101° |
| 2026-04-14 23:06 | -24.72226 | 138.01602 | 39129 ft | 508 kts | 100° |
| 2026-04-14 23:07 | -24.78634 | 138.32479 | 39152 ft | 526 kts | 100° |
| 2026-04-14 23:07 | -24.85112 | 138.64010 | 39069 ft | 524 kts | 100° |
| 2026-04-14 23:08 | -24.91336 | 138.94664 | 39040 ft | 509 kts | 100° |
| 2026-04-14 23:08 | -24.97378 | 139.24773 | 39121 ft | 509 kts | 100° |
| 2026-04-14 23:09 | -25.03537 | 139.55798 | 39136 ft | 526 kts | 99° |
| 2026-04-14 23:09 | -25.09762 | 139.87495 | 39060 ft | 523 kts | 99° |
| 2026-04-14 23:10 | -25.15732 | 140.18273 | 39037 ft | 508 kts | 99° |
| 2026-04-14 23:10 | -25.21555 | 140.48661 | 39094 ft | 508 kts | 99° |
| 2026-04-14 23:11 | -25.27434 | 140.79697 | 39142 ft | 525 kts | 99° |
| 2026-04-14 23:11 | -25.33394 | 141.11526 | 39050 ft | 526 kts | 99° |
| 2026-04-14 23:12 | -25.38048 | 141.36648 | 39033 ft | 514 kts | 99° |
| 2026-04-14 23:12 | -25.39452 | 141.44288 | 39063 ft | 511 kts | 99° |
| 2026-04-14 23:13 | -25.40879 | 141.52087 | 39082 ft | 515 kts | 99° |
| 2026-04-14 23:13 | -25.42297 | 141.59856 | 39076 ft | 520 kts | 99° |
| 2026-04-14 23:14 | -25.43728 | 141.67704 | 39073 ft | 520 kts | 99° |
| 2026-04-14 23:14 | -25.45151 | 141.75534 | 39072 ft | 519 kts | 99° |
| 2026-04-14 23:15 | -25.46569 | 141.83363 | 39077 ft | 518 kts | 99° |
| 2026-04-14 23:15 | -25.47981 | 141.91187 | 39073 ft | 518 kts | 99° |
| 2026-04-14 23:16 | -25.49381 | 141.98965 | 39078 ft | 517 kts | 99° |
| 2026-04-14 23:16 | -25.50783 | 142.06783 | 39070 ft | 517 kts | 99° |
| 2026-04-14 23:17 | -25.52178 | 142.14588 | 39075 ft | 516 kts | 99° |